KMTJ/MTJ METAR and TAF weather

Enter ICAO airport designator
Station Type Date Time Source
KMTJ METAR 2022/06/28 14:53 UTC NOAA

KMTJ 281453Z AUTO 00000KT 10SM CLR 22/07 A3041 RMK AO2 SLP212 T02170067 51007


Station Type Date Time Source
KMTJ Decoded METAR 2022/06/28 14:53 UTC NOAA

MONTROSE REGIONAL AIRPORT, CO, United States (KMTJ) 38-30N 107-54W 1750M
Jun 28, 2022 - 10:53 AM EDT / 2022.06.28 1453 UTC
Wind: Calm:0
Visibility: 10 mile(s):0
Sky conditions: clear
Temperature: 71.1 F (21.7 C)
Dew Point: 44.1 F (6.7 C)
Relative Humidity: 37%
Pressure (altimeter): 30.41 in. Hg (1029 hPa)
Pressure tendency: 0.02 inches (0.7 hPa) higher than three hours ago
ob: KMTJ 281453Z AUTO 00000KT 10SM CLR 22/07 A3041 RMK AO2 SLP212 T02170067 51007
cycle: 15

Station Type Date Time Source
KMTJ TAF 2022/06/28 12:22 UTC NOAA

TAF KMTJ 281120Z 2812/2912 14009KT P6SM SKC
FM281800 32006KT P6SM SCT090
FM290200 14008KT P6SM SCT100

Example: see airport list